Time;durP1;ratioP1;P1;durP2;ratioP2;P2;SDS_P1;SDS_P2;PMS_P1;PMS_P2;Temp;Humidity;BMP_temperature;BMP_pressure;BME280_temperature;BME280_humidity;BME280_pressure;Samples;Min_cycle;Max_cycle;Signal;HPM_P1;HPM_P2
2022/06/11 00:00:52;;;;;;;3.42;1.08;;;19.80;98.00;;;;;;5018309;28;20029;-84
2022/06/11 00:03:17;;;;;;;3.63;1.13;;;19.80;98.00;;;;;;5036332;28;20030;-83
2022/06/11 00:05:43;;;;;;;5.15;1.38;;;19.80;98.00;;;;;;5018250;28;20031;-84
2022/06/11 00:08:09;;;;;;;3.08;1.20;;;19.80;98.00;;;;;;5035903;28;20022;-83
2022/06/11 00:10:35;;;;;;;2.70;1.00;;;19.80;98.00;;;;;;5018222;28;20076;-83
2022/06/11 00:13:02;;;;;;;7.13;1.38;;;19.80;98.00;;;;;;5018167;28;20022;-83
2022/06/11 00:15:28;;;;;;;7.68;1.33;;;19.80;97.90;;;;;;5018055;28;20034;-84
2022/06/11 00:17:56;;;;;;;7.38;1.42;;;19.80;98.00;;;;;;5017981;28;20104;-84
2022/06/11 00:20:22;;;;;;;2.58;1.40;;;19.80;97.90;;;;;;5018032;28;20127;-84
2022/06/11 00:22:48;;;;;;;2.85;1.23;;;19.70;97.90;;;;;;5018029;28;20037;-84
2022/06/11 00:25:14;;;;;;;5.18;1.13;;;19.70;97.90;;;;;;5017922;28;20026;-83
2022/06/11 00:27:40;;;;;;;3.78;1.50;;;19.70;97.90;;;;;;5017959;28;20026;-84
2022/06/11 00:30:08;;;;;;;4.78;1.20;;;19.70;97.90;;;;;;5017789;28;20048;-84
2022/06/11 00:32:33;;;;;;;2.47;1.13;;;19.70;97.90;;;;;;5017818;28;20022;-83
2022/06/11 00:35:02;;;;;;;2.30;1.02;;;19.70;98.20;;;;;;5016889;28;20067;-84
2022/06/11 00:37:28;;;;;;;6.07;1.40;;;19.70;98.00;;;;;;5035289;28;20488;-83
2022/06/11 00:39:55;;;;;;;4.63;1.23;;;19.60;97.90;;;;;;5035470;28;20033;-83
2022/06/11 00:42:25;;;;;;;3.22;1.25;;;19.70;97.90;;;;;;5017665;28;20203;-84
2022/06/11 00:45:16;;;;;;;4.85;1.52;;;19.60;97.90;;;;;;5017508;28;20392;-84
2022/06/11 00:47:46;;;;;;;5.20;1.17;;;19.60;97.90;;;;;;5035268;28;20083;-84
2022/06/11 00:50:23;;;;;;;3.92;1.20;;;19.60;98.00;;;;;;5033926;28;20037;-84
2022/06/11 00:52:50;;;;;;;4.10;1.50;;;19.60;97.90;;;;;;5018005;28;20027;-84
2022/06/11 00:55:24;;;;;;;2.92;1.00;;;19.60;97.90;;;;;;5017756;28;20436;-84
2022/06/11 00:58:16;;;;;;;7.03;1.33;;;19.60;97.90;;;;;;5035108;28;20412;-84
2022/06/11 01:00:49;;;;;;;3.10;1.23;;;19.60;97.90;;;;;;5017339;28;20104;-83
2022/06/11 01:03:19;;;;;;;3.65;1.30;;;19.50;98.20;;;;;;5033826;28;20543;-84
2022/06/11 01:05:59;;;;;;;2.00;0.90;;;19.60;97.90;;;;;;5017251;28;20040;-84
2022/06/11 01:08:53;;;;;;;4.45;1.20;;;19.60;97.80;;;;;;5034903;28;20022;-84
2022/06/11 01:11:38;;;;;;;4.35;1.08;;;19.50;97.80;;;;;;5017122;28;20021;-83
2022/06/11 01:14:33;;;;;;;5.07;1.50;;;19.50;97.80;;;;;;5017161;28;20022;-83
2022/06/11 01:17:19;;;;;;;3.03;1.20;;;19.50;97.80;;;;;;5016950;28;20028;-83
2022/06/11 01:19:54;;;;;;;3.13;1.10;;;19.50;97.80;;;;;;5016962;28;20478;-84
2022/06/11 01:22:38;;;;;;;3.35;1.10;;;19.50;97.80;;;;;;5016894;28;20053;-83
2022/06/11 01:25:19;;;;;;;2.88;1.23;;;19.50;97.80;;;;;;5016888;28;20374;-83
2022/06/11 01:28:01;;;;;;;6.20;1.33;;;19.50;97.80;;;;;;5016783;28;20540;-84
2022/06/11 01:30:41;;;;;;;3.55;1.30;;;19.50;97.80;;;;;;5016726;28;20504;-83
2022/06/11 01:33:33;;;;;;;2.17;1.10;;;19.40;97.80;;;;;;5034738;28;20124;-84
2022/06/11 01:36:09;;;;;;;5.60;1.45;;;19.40;97.90;;;;;;5016643;28;20018;-84
2022/06/11 01:38:57;;;;;;;3.67;1.55;;;19.40;97.90;;;;;;5030707;28;20166;-84
2022/06/11 01:41:44;;;;;;;2.85;1.27;;;19.40;97.90;;;;;;5036350;28;20032;-83
2022/06/11 01:44:20;;;;;;;4.57;1.20;;;19.40;97.90;;;;;;5054137;28;20029;-83
2022/06/11 01:46:50;;;;;;;3.30;1.20;;;19.40;97.90;;;;;;5036200;28;20404;-83
2022/06/11 01:49:23;;;;;;;2.70;0.95;;;19.40;97.90;;;;;;5036127;28;20036;-84
2022/06/11 01:52:10;;;;;;;4.88;1.15;;;19.40;97.90;;;;;;5036085;28;20107;-83
2022/06/11 01:54:48;;;;;;;2.47;0.90;;;19.40;97.90;;;;;;5036099;28;20055;-83
2022/06/11 01:57:51;;;;;;;5.68;0.93;;;19.30;97.90;;;;;;5053930;28;20025;-83
2022/06/11 02:00:22;;;;;;;2.28;1.20;;;19.30;97.90;;;;;;5035897;28;20060;-83
2022/06/11 02:02:57;;;;;;;4.05;1.30;;;19.30;97.90;;;;;;5035930;28;20033;-84
2022/06/11 02:05:44;;;;;;;3.92;1.10;;;19.30;97.80;;;;;;5054126;28;20037;-83
2022/06/11 02:08:19;;;;;;;2.40;1.08;;;19.30;97.80;;;;;;5036655;28;20036;-83
2022/06/11 02:10:56;;;;;;;1.98;0.90;;;19.30;97.80;;;;;;5053978;28;20074;-83
2022/06/11 02:13:54;;;;;;;3.40;1.00;;;19.30;97.80;;;;;;5035865;28;20032;-83
2022/06/11 02:16:26;;;;;;;2.03;1.10;;;19.30;97.80;;;;;;5053581;28;20029;-83
2022/06/11 02:18:54;;;;;;;3.83;1.25;;;19.30;97.80;;;;;;5035633;28;20033;-83
2022/06/11 02:21:27;;;;;;;3.72;1.00;;;19.30;97.80;;;;;;5035701;28;20479;-84
2022/06/11 02:23:58;;;;;;;8.05;1.20;;;19.30;97.80;;;;;;5035657;28;20028;-83
2022/06/11 02:26:29;;;;;;;5.80;1.33;;;19.20;97.80;;;;;;5053497;28;20052;-83
2022/06/11 02:28:57;;;;;;;4.05;1.08;;;19.20;97.80;;;;;;5035490;28;20502;-84
2022/06/11 02:31:30;;;;;;;3.97;1.52;;;19.20;97.80;;;;;;5035503;28;20388;-84
2022/06/11 02:33:56;;;;;;;7.72;1.27;;;19.20;97.80;;;;;;5035461;28;20041;-83
2022/06/11 02:36:28;;;;;;;2.35;1.17;;;19.20;97.80;;;;;;5035472;28;20476;-84
2022/06/11 02:38:55;;;;;;;2.35;1.30;;;19.20;97.80;;;;;;5035495;28;20055;-84
2022/06/11 02:41:31;;;;;;;3.47;1.35;;;19.10;97.80;;;;;;5053210;28;20017;-83
2022/06/11 02:43:57;;;;;;;2.25;1.10;;;19.20;97.80;;;;;;5036183;28;20060;-84
2022/06/11 02:46:43;;;;;;;4.22;1.35;;;19.20;97.80;;;;;;5053179;28;20500;-84
2022/06/11 02:49:13;;;;;;;2.95;1.00;;;19.20;97.80;;;;;;5021393;28;20037;-83
2022/06/11 02:51:40;;;;;;;3.08;0.90;;;19.10;97.80;;;;;;5035250;28;20041;-83
2022/06/11 02:54:05;;;;;;;3.63;1.30;;;19.10;97.80;;;;;;5035233;28;20074;-84
2022/06/11 02:56:31;;;;;;;5.13;1.30;;;19.10;97.80;;;;;;5035243;28;20017;-83
2022/06/11 02:58:57;;;;;;;2.25;1.20;;;19.10;97.80;;;;;;5054834;28;20036;-84
2022/06/11 03:01:25;;;;;;;4.30;1.77;;;19.10;97.70;;;;;;5039355;28;20028;-84
2022/06/11 03:03:51;;;;;;;3.17;1.10;;;19.10;97.80;;;;;;5057271;28;20033;-83
2022/06/11 03:06:18;;;;;;;2.45;1.27;;;19.10;97.80;;;;;;5039597;28;20393;-83
2022/06/11 03:08:44;;;;;;;4.47;1.33;;;19.10;97.70;;;;;;5056974;28;20100;-83
2022/06/11 03:11:10;;;;;;;4.68;1.10;;;19.10;97.70;;;;;;5039501;28;20028;-83
2022/06/11 03:13:36;;;;;;;3.05;1.10;;;19.10;97.70;;;;;;5039124;28;20029;-83
2022/06/11 03:16:02;;;;;;;2.40;1.10;;;19.00;97.70;;;;;;5039057;28;20025;-83
2022/06/11 03:18:28;;;;;;;3.13;1.27;;;19.00;97.80;;;;;;5056831;28;20025;-83
2022/06/11 03:20:54;;;;;;;2.72;1.10;;;19.00;97.80;;;;;;5038986;28;20498;-84
2022/06/11 03:23:20;;;;;;;3.00;1.10;;;19.00;97.70;;;;;;5038925;28;20439;-83
2022/06/11 03:25:47;;;;;;;4.30;1.13;;;19.00;97.70;;;;;;5056726;28;20021;-84
2022/06/11 03:28:20;;;;;;;3.35;1.00;;;19.00;97.70;;;;;;5038729;28;20033;-83
2022/06/11 03:30:46;;;;;;;4.55;1.10;;;19.00;97.70;;;;;;5056950;28;20383;-84
2022/06/11 03:33:12;;;;;;;2.80;1.13;;;19.00;97.70;;;;;;5038670;28;20115;-83
2022/06/11 03:35:38;;;;;;;2.70;1.13;;;19.00;97.70;;;;;;5038718;28;20143;-84
2022/06/11 03:38:07;;;;;;;3.47;1.17;;;19.00;97.70;;;;;;5011943;28;20080;-83
2022/06/11 03:40:33;;;;;;;3.20;1.15;;;19.00;97.70;;;;;;5036545;28;20072;-84
2022/06/11 03:42:59;;;;;;;4.63;1.38;;;18.90;97.70;;;;;;5036478;28;20439;-83
2022/06/11 03:45:25;;;;;;;3.20;1.20;;;18.90;97.70;;;;;;5018643;28;20021;-83
2022/06/11 03:47:50;;;;;;;6.82;3.17;;;18.90;97.70;;;;;;5036413;28;20054;-83
2022/06/11 03:50:23;;;;;;;9.52;3.30;;;18.90;97.70;;;;;;5018589;28;20040;-83
2022/06/11 03:52:49;;;;;;;3.65;1.58;;;18.90;98.00;;;;;;5018620;28;20053;-83
2022/06/11 03:55:15;;;;;;;6.30;1.63;;;18.90;97.60;;;;;;5036268;28;20029;-83
2022/06/11 03:57:41;;;;;;;4.20;1.67;;;18.90;97.60;;;;;;5036521;28;20493;-84
2022/06/11 04:00:10;;;;;;;4.47;1.60;;;18.90;97.70;;;;;;5036166;28;20033;-83
2022/06/11 04:02:37;;;;;;;4.43;1.77;;;18.90;97.60;;;;;;5018401;28;20025;-83
2022/06/11 04:05:05;;;;;;;4.78;1.58;;;18.90;97.70;;;;;;5018634;28;20033;-83
2022/06/11 04:07:31;;;;;;;4.90;1.58;;;18.90;97.60;;;;;;5035995;28;20025;-83
2022/06/11 04:09:57;;;;;;;3.10;1.33;;;18.80;97.60;;;;;;5016818;28;20099;-83
2022/06/11 04:12:23;;;;;;;2.08;1.38;;;18.90;97.60;;;;;;5036207;28;20022;-83
2022/06/11 04:14:51;;;;;;;2.95;1.23;;;18.90;97.60;;;;;;5018064;28;20080;-83
2022/06/11 04:17:23;;;;;;;6.20;1.42;;;18.80;97.60;;;;;;5001867;28;20033;-84
2022/06/11 04:19:50;;;;;;;6.60;1.23;;;18.80;97.60;;;;;;5035854;28;20061;-83
2022/06/11 04:22:17;;;;;;;3.85;1.45;;;18.80;97.70;;;;;;5018302;28;20472;-84
2022/06/11 04:24:43;;;;;;;6.80;1.80;;;18.80;97.70;;;;;;5017938;28;20393;-83
2022/06/11 04:27:11;;;;;;;5.13;1.20;;;18.80;97.70;;;;;;5035678;28;20049;-83
2022/06/11 04:29:43;;;;;;;4.43;1.50;;;18.80;97.70;;;;;;5017794;28;20378;-83
2022/06/11 04:32:15;;;;;;;3.22;1.58;;;18.80;97.70;;;;;;5035889;28;20044;-83
2022/06/11 04:34:42;;;;;;;5.78;1.25;;;18.80;97.70;;;;;;5035566;28;20520;-83
2022/06/11 04:37:13;;;;;;;4.95;1.70;;;18.80;97.80;;;;;;5017472;28;20393;-84
2022/06/11 04:39:43;;;;;;;4.10;1.40;;;18.80;97.80;;;;;;5017714;28;20029;-83
2022/06/11 04:42:11;;;;;;;5.70;1.50;;;18.80;97.80;;;;;;5017700;28;20542;-83
2022/06/11 04:44:41;;;;;;;7.22;1.60;;;18.80;97.80;;;;;;5017558;28;20029;-83
2022/06/11 04:47:09;;;;;;;4.07;1.38;;;18.80;97.80;;;;;;5017547;28;20030;-83
2022/06/11 04:49:35;;;;;;;3.95;1.67;;;18.80;97.90;;;;;;5017314;28;20492;-83
2022/06/11 04:52:01;;;;;;;2.88;1.30;;;18.80;97.90;;;;;;5017456;28;20025;-83
2022/06/11 04:54:27;;;;;;;9.30;1.30;;;18.80;97.90;;;;;;5017386;28;20030;-84
2022/06/11 04:56:53;;;;;;;4.28;1.35;;;18.80;98.00;;;;;;5017345;28;20077;-83
2022/06/11 04:59:19;;;;;;;3.47;1.33;;;18.80;98.00;;;;;;5035232;28;20035;-83
2022/06/11 05:01:45;;;;;;;3.63;1.35;;;18.80;98.00;;;;;;5035059;28;20039;-83
2022/06/11 05:04:13;;;;;;;3.60;1.23;;;18.80;98.10;;;;;;5017198;28;20029;-83
2022/06/11 05:06:41;;;;;;;3.67;1.30;;;18.80;98.20;;;;;;5017089;28;20426;-83
2022/06/11 05:09:12;;;;;;;3.53;1.20;;;18.80;98.20;;;;;;5017033;28;20374;-83
2022/06/11 05:11:38;;;;;;;6.22;1.25;;;18.80;98.30;;;;;;5017047;28;20025;-83
2022/06/11 05:14:04;;;;;;;4.28;1.27;;;18.80;98.40;;;;;;5017051;28;20370;-83
2022/06/11 05:16:30;;;;;;;3.35;1.60;;;18.80;98.40;;;;;;5016995;28;20026;-83
2022/06/11 05:18:57;;;;;;;3.80;1.48;;;18.80;98.50;;;;;;5016996;28;20029;-83
2022/06/11 05:21:24;;;;;;;3.25;1.48;;;18.80;98.50;;;;;;5034302;28;20076;-83
2022/06/11 05:23:49;;;;;;;2.95;1.50;;;18.80;98.60;;;;;;5016941;28;20488;-84
2022/06/11 05:26:28;;;;;;;3.92;1.50;;;18.90;98.70;;;;;;5016831;28;20025;-83
2022/06/11 05:28:53;;;;;;;2.72;1.40;;;18.90;98.70;;;;;;5016699;28;20029;-83
2022/06/11 05:31:19;;;;;;;4.18;1.15;;;18.90;98.80;;;;;;5016751;28;20530;-83
2022/06/11 05:33:45;;;;;;;4.60;1.50;;;18.90;98.90;;;;;;5034695;28;20396;-83
2022/06/11 05:36:13;;;;;;;3.25;1.10;;;18.90;98.90;;;;;;5034668;28;20018;-83
2022/06/11 05:38:40;;;;;;;6.32;1.58;;;18.90;99.00;;;;;;5034092;28;20519;-83
2022/06/11 05:41:05;;;;;;;4.93;1.40;;;18.90;99.00;;;;;;5016605;28;20036;-83
2022/06/11 05:43:31;;;;;;;3.75;1.30;;;18.90;98.90;;;;;;5034261;28;20388;-83
2022/06/11 05:46:25;;;;;;;3.72;1.70;;;18.90;99.10;;;;;;5000030;28;20038;-83
2022/06/11 05:48:58;;;;;;;3.42;1.40;;;18.90;99.20;;;;;;5030550;28;20048;-83
2022/06/11 05:51:33;;;;;;;3.85;1.27;;;18.90;99.10;;;;;;5034224;28;20063;-83
2022/06/11 05:54:02;;;;;;;3.08;1.40;;;18.90;99.10;;;;;;5034068;28;20034;-83
2022/06/11 05:56:28;;;;;;;4.70;1.30;;;19.00;99.10;;;;;;5016280;28;20499;-83
2022/06/11 05:58:58;;;;;;;4.63;1.30;;;18.90;99.10;;;;;;5016239;28;20146;-83
2022/06/11 06:01:27;;;;;;;5.18;1.55;;;18.90;99.10;;;;;;5016227;28;20102;-83
2022/06/11 06:03:53;;;;;;;3.33;1.30;;;19.00;99.10;;;;;;5034084;28;20025;-83
2022/06/11 06:06:18;;;;;;;3.13;1.20;;;19.00;99.10;;;;;;5033888;28;20029;-83
2022/06/11 06:08:44;;;;;;;4.45;1.30;;;19.00;99.10;;;;;;5015993;28;20393;-83
2022/06/11 06:11:10;;;;;;;6.68;1.35;;;19.00;99.10;;;;;;5034048;28;20021;-83
2022/06/11 06:13:51;;;;;;;2.45;1.23;;;19.00;99.10;;;;;;5033757;28;20021;-83
2022/06/11 06:16:20;;;;;;;2.45;1.23;;;19.00;99.20;;;;;;5016037;28;20227;-83
2022/06/11 06:18:47;;;;;;;3.28;1.00;;;19.00;99.40;;;;;;5033650;28;20099;-83
2022/06/11 06:21:14;;;;;;;4.40;1.25;;;19.00;99.30;;;;;;5033907;28;20104;-83
2022/06/11 06:23:40;;;;;;;2.22;1.20;;;19.00;99.30;;;;;;5016407;28;20033;-83
2022/06/11 06:26:06;;;;;;;5.38;1.38;;;19.00;99.30;;;;;;5015824;28;20029;-83
2022/06/11 06:28:34;;;;;;;3.20;1.20;;;19.10;99.40;;;;;;5015739;28;20036;-83
2022/06/11 06:31:00;;;;;;;2.50;1.40;;;19.10;99.40;;;;;;4999557;28;20021;-83
2022/06/11 06:33:32;;;;;;;4.05;1.30;;;19.10;99.40;;;;;;5014992;28;20018;-83
2022/06/11 06:36:01;;;;;;;2.45;1.23;;;19.10;99.50;;;;;;5033447;28;20034;-83
2022/06/11 06:38:27;;;;;;;3.85;1.30;;;19.10;99.50;;;;;;5028484;28;20098;-83
2022/06/11 06:40:52;;;;;;;3.22;1.45;;;19.10;99.50;;;;;;5035420;28;20029;-83
2022/06/11 06:43:18;;;;;;;5.38;1.50;;;19.10;99.50;;;;;;5035291;28;20029;-83
2022/06/11 06:45:44;;;;;;;3.83;1.55;;;19.10;99.50;;;;;;5053420;28;20025;-83
2022/06/11 06:48:10;;;;;;;3.92;1.55;;;19.20;99.60;;;;;;5053013;28;20107;-83
2022/06/11 06:50:36;;;;;;;2.33;1.20;;;19.20;99.60;;;;;;5035164;28;20033;-83
2022/06/11 06:53:02;;;;;;;2.47;0.98;;;19.20;99.60;;;;;;5035265;28;20115;-83
2022/06/11 06:55:28;;;;;;;3.25;1.10;;;19.20;99.60;;;;;;5035421;28;20079;-83
2022/06/11 06:57:54;;;;;;;4.00;1.30;;;19.20;99.60;;;;;;5035096;28;20021;-83
2022/06/11 07:00:20;;;;;;;1.42;1.00;;;19.20;99.50;;;;;;5052963;28;20536;-83
2022/06/11 07:02:46;;;;;;;5.47;1.70;;;19.20;99.40;;;;;;5053515;28;20052;-83
2022/06/11 07:05:13;;;;;;;2.05;1.10;;;19.20;99.50;;;;;;5035134;28;20485;-83
2022/06/11 07:07:40;;;;;;;2.72;1.05;;;19.20;99.50;;;;;;5052932;28;20021;-83
2022/06/11 07:10:07;;;;;;;5.10;1.30;;;19.20;99.50;;;;;;5034995;28;20120;-83
2022/06/11 07:12:33;;;;;;;6.00;1.20;;;19.20;99.50;;;;;;5035006;28;20481;-83
2022/06/11 07:14:59;;;;;;;4.28;1.40;;;19.20;99.50;;;;;;5034791;28;20021;-83
2022/06/11 07:17:31;;;;;;;2.78;1.02;;;19.20;99.50;;;;;;5034976;28;20021;-83
2022/06/11 07:20:02;;;;;;;1.60;1.00;;;19.20;99.40;;;;;;5035041;28;20029;-83
2022/06/11 07:22:38;;;;;;;2.88;1.40;;;19.30;99.40;;;;;;5053185;28;20109;-82
2022/06/11 07:25:06;;;;;;;1.77;1.10;;;19.30;99.40;;;;;;5035055;28;20168;-82
2022/06/11 07:27:38;;;;;;;3.15;1.35;;;19.30;99.40;;;;;;5034964;28;20025;-83
2022/06/11 07:30:10;;;;;;;4.88;1.50;;;19.30;99.30;;;;;;5052701;28;20029;-83
2022/06/11 07:32:38;;;;;;;2.42;1.20;;;19.30;99.30;;;;;;5019362;28;20385;-83
2022/06/11 07:35:05;;;;;;;3.58;1.25;;;19.30;99.30;;;;;;5035120;28;20017;-83
2022/06/11 07:37:32;;;;;;;3.53;1.05;;;19.30;99.70;;;;;;5046980;28;20113;-82
2022/06/11 07:39:58;;;;;;;2.97;1.00;;;19.30;99.30;;;;;;5015383;28;20036;-82
2022/06/11 07:42:24;;;;;;;1.98;1.13;;;19.40;99.30;;;;;;5033111;28;20380;-83
2022/06/11 07:44:50;;;;;;;1.73;1.20;;;19.40;99.30;;;;;;5016542;28;20026;-83
2022/06/11 07:47:53;;;;;;;2.03;1.13;;;19.40;99.30;;;;;;5019797;28;20407;-83
2022/06/11 07:50:01;;;;;;;2.33;1.30;;;19.40;99.20;;;;;;5036221;28;20103;-83
2022/06/11 07:52:27;;;;;;;2.13;1.20;;;19.40;99.20;;;;;;5036569;28;20473;-83
2022/06/11 07:54:53;;;;;;;3.17;1.30;;;19.40;99.20;;;;;;5036374;28;20025;-83
2022/06/11 07:57:18;;;;;;;2.25;1.00;;;19.40;99.20;;;;;;5018513;28;20022;-83
2022/06/11 07:59:44;;;;;;;3.17;1.30;;;19.50;99.20;;;;;;5018189;28;20365;-83
2022/06/11 08:02:09;;;;;;;4.13;1.30;;;19.40;99.10;;;;;;5018466;28;20095;-83
2022/06/11 08:04:35;;;;;;;2.03;0.90;;;19.50;99.10;;;;;;5036144;28;20100;-83
2022/06/11 08:07:01;;;;;;;3.92;1.20;;;19.50;99.00;;;;;;5018363;28;20059;-83
2022/06/11 08:09:26;;;;;;;2.00;1.15;;;19.50;98.90;;;;;;5018264;28;20057;-83
2022/06/11 08:11:52;;;;;;;4.18;1.40;;;19.50;99.00;;;;;;5018381;28;20017;-83
2022/06/11 08:14:18;;;;;;;2.80;1.23;;;19.50;98.90;;;;;;5036298;28;20487;-83
2022/06/11 08:16:43;;;;;;;2.85;1.30;;;19.50;98.90;;;;;;5035917;28;20029;-83
2022/06/11 08:19:09;;;;;;;2.20;1.30;;;19.60;98.90;;;;;;5018041;28;20481;-83
2022/06/11 08:21:35;;;;;;;2.95;1.13;;;19.60;98.90;;;;;;5036108;28;20465;-83
2022/06/11 08:24:00;;;;;;;1.65;1.02;;;19.60;98.80;;;;;;5018030;28;20038;-83
2022/06/11 08:26:27;;;;;;;3.97;1.42;;;19.60;98.70;;;;;;5018022;28;20021;-83
2022/06/11 08:28:53;;;;;;;5.40;1.38;;;19.70;98.70;;;;;;5017903;28;20064;-83
2022/06/11 08:31:18;;;;;;;2.03;1.00;;;19.70;98.70;;;;;;5017865;28;20049;-83
2022/06/11 08:33:44;;;;;;;6.88;1.52;;;19.70;98.70;;;;;;5017809;28;20105;-83
2022/06/11 08:36:10;;;;;;;3.78;1.17;;;19.70;98.70;;;;;;5017791;28;20404;-83
2022/06/11 08:38:35;;;;;;;4.28;1.20;;;19.70;98.60;;;;;;5031647;28;20037;-83
2022/06/11 08:41:02;;;;;;;1.55;1.00;;;19.80;98.60;;;;;;5055353;28;20040;-83
2022/06/11 08:43:37;;;;;;;3.45;1.17;;;19.80;98.50;;;;;;5037567;28;20036;-82
2022/06/11 08:46:16;;;;;;;3.65;1.30;;;19.80;98.50;;;;;;5037349;28;20024;-83
2022/06/11 08:48:42;;;;;;;2.42;1.13;;;19.80;98.50;;;;;;5037272;28;20040;-83
2022/06/11 08:51:21;;;;;;;4.05;1.48;;;19.80;98.40;;;;;;5055104;28;20071;-82
2022/06/11 08:53:49;;;;;;;2.83;1.02;;;19.90;98.40;;;;;;5037214;28;20266;-84
2022/06/11 08:56:26;;;;;;;2.30;0.95;;;19.90;98.30;;;;;;5036399;28;20064;-83
2022/06/11 08:59:04;;;;;;;4.70;1.25;;;19.90;98.30;;;;;;5037291;28;20033;-83
2022/06/11 09:01:57;;;;;;;2.58;1.00;;;19.90;98.20;;;;;;5055031;28;20068;-83
2022/06/11 09:04:58;;;;;;;3.70;1.00;;;20.00;98.10;;;;;;5037173;28;20020;-83
2022/06/11 09:07:29;;;;;;;3.53;1.60;;;20.00;98.10;;;;;;5037082;28;20028;-84
2022/06/11 09:10:00;;;;;;;5.65;1.35;;;20.00;98.00;;;;;;5036874;28;20025;-84
2022/06/11 09:12:56;;;;;;;4.97;1.30;;;20.10;98.00;;;;;;5036928;28;20077;-83
2022/06/11 09:15:45;;;;;;;4.38;1.30;;;20.10;98.00;;;;;;5038018;28;20021;-83
2022/06/11 09:18:29;;;;;;;7.95;1.35;;;20.10;97.90;;;;;;5036760;28;20017;-83
2022/06/11 09:21:47;;;;;;;4.65;1.50;;;20.10;97.90;;;;;;5036780;28;20064;-83
2022/06/11 09:24:38;;;;;;;4.75;1.20;;;20.20;97.90;;;;;;5004226;28;20032;-84
2022/06/11 09:27:34;;;;;;;7.20;1.27;;;20.20;97.80;;;;;;5036678;28;20025;-83
2022/06/11 09:30:12;;;;;;;3.72;1.17;;;20.20;97.80;;;;;;5054503;28;20434;-83
2022/06/11 09:33:00;;;;;;;3.22;1.25;;;20.20;97.80;;;;;;5036587;28;20111;-83
2022/06/11 09:36:01;;;;;;;3.58;1.30;;;20.10;97.80;;;;;;5037631;28;20377;-83
2022/06/11 09:38:32;;;;;;;7.60;1.38;;;20.10;97.80;;;;;;5036358;28;20041;-83
2022/06/11 09:41:20;;;;;;;5.55;1.27;;;20.10;97.80;;;;;;5054270;28;20048;-84
2022/06/11 09:44:16;;;;;;;2.72;1.05;;;20.10;97.80;;;;;;5036362;28;20059;-84
2022/06/11 09:46:52;;;;;;;4.63;1.02;;;20.10;97.80;;;;;;5036315;28;20039;-83
2022/06/11 09:49:21;;;;;;;3.05;1.15;;;20.10;97.80;;;;;;5036178;28;20547;-84
2022/06/11 09:51:55;;;;;;;6.43;1.23;;;20.20;97.80;;;;;;5036194;28;20021;-84
2022/06/11 09:54:45;;;;;;;5.30;1.33;;;20.20;97.80;;;;;;5036105;28;20029;-83
2022/06/11 09:57:23;;;;;;;7.63;1.40;;;20.20;97.80;;;;;;5053964;28;20021;-84
2022/06/11 10:00:18;;;;;;;5.20;1.50;;;20.20;97.70;;;;;;5035826;28;20028;-83
2022/06/11 10:03:21;;;;;;;4.72;1.20;;;20.30;97.60;;;;;;5036057;28;20029;-84
2022/06/11 10:06:02;;;;;;;6.72;1.25;;;20.40;97.60;;;;;;5054101;28;20592;-83
2022/06/11 10:08:58;;;;;;;7.43;1.38;;;20.40;97.50;;;;;;5035826;28;20392;-83
2022/06/11 10:11:36;;;;;;;5.90;1.27;;;20.50;97.40;;;;;;5035800;28;20385;-84
2022/06/11 10:14:28;;;;;;;7.28;1.35;;;20.50;97.40;;;;;;5053728;28;20051;-83
2022/06/11 10:17:01;;;;;;;6.30;1.20;;;20.60;97.40;;;;;;5035726;28;20021;-83
2022/06/11 10:19:43;;;;;;;4.22;1.15;;;20.60;97.60;;;;;;5035664;28;20025;-83
2022/06/11 10:22:29;;;;;;;4.47;1.33;;;20.60;97.20;;;;;;5053637;28;20083;-83
2022/06/11 10:24:54;;;;;;;4.15;1.20;;;20.70;97.30;;;;;;5035689;28;20025;-83
2022/06/11 10:27:23;;;;;;;3.83;1.20;;;20.70;97.20;;;;;;5035805;28;20029;-83
2022/06/11 10:29:59;;;;;;;7.15;1.17;;;20.80;97.20;;;;;;5053454;28;20029;-83
2022/06/11 10:32:52;;;;;;;5.45;1.23;;;20.80;97.00;;;;;;5035542;28;20025;-83
2022/06/11 10:35:22;;;;;;;4.18;1.33;;;20.80;97.10;;;;;;5032491;28;20029;-84
2022/06/11 10:38:19;;;;;;;3.47;1.10;;;20.80;97.10;;;;;;5035721;28;20154;-84
2022/06/11 10:40:47;;;;;;;3.30;1.27;;;20.90;97.10;;;;;;5019827;28;20124;-83
2022/06/11 10:43:38;;;;;;;3.30;1.48;;;20.90;97.00;;;;;;5053242;28;20056;-84
2022/06/11 10:46:04;;;;;;;2.22;1.02;;;20.90;97.30;;;;;;5020057;28;20043;-84
2022/06/11 10:48:34;;;;;;;4.20;1.27;;;20.90;96.90;;;;;;5035188;28;20029;-84
2022/06/11 10:51:04;;;;;;;1.95;1.13;;;20.90;96.90;;;;;;5053225;28;20017;-83
2022/06/11 10:53:41;;;;;;;5.03;1.30;;;20.90;96.80;;;;;;5035304;28;20025;-84
2022/06/11 10:56:17;;;;;;;5.95;1.33;;;21.00;96.90;;;;;;5053182;28;20076;-85
2022/06/11 10:59:05;;;;;;;3.95;1.02;;;21.00;96.90;;;;;;5035177;28;20029;-84
2022/06/11 11:01:47;;;;;;;6.97;1.27;;;21.10;96.80;;;;;;5053149;28;20025;-84
2022/06/11 11:04:48;;;;;;;5.15;1.05;;;21.10;96.80;;;;;;5035310;28;20025;-84
2022/06/11 11:07:19;;;;;;;4.95;1.25;;;21.20;96.70;;;;;;5022079;28;20045;-83
2022/06/11 11:09:46;;;;;;;4.43;1.30;;;21.20;96.70;;;;;;5035059;28;20029;-84
2022/06/11 11:12:35;;;;;;;2.40;0.90;;;21.10;96.60;;;;;;5035212;28;20028;-83
2022/06/11 11:15:10;;;;;;;3.55;1.00;;;21.20;96.60;;;;;;5035085;28;20392;-84
2022/06/11 11:17:43;;;;;;;3.60;0.93;;;21.30;96.60;;;;;;5035162;28;20087;-84
2022/06/11 11:20:29;;;;;;;4.72;1.27;;;21.30;96.60;;;;;;5055283;28;20112;-84
2022/06/11 11:23:02;;;;;;;4.20;1.30;;;21.30;96.50;;;;;;5038992;28;20408;-83
2022/06/11 11:25:45;;;;;;;3.55;1.10;;;21.30;96.90;;;;;;5057168;28;20488;-83
2022/06/11 11:28:44;;;;;;;2.50;1.00;;;21.20;96.50;;;;;;5038986;28;20029;-84
2022/06/11 11:31:21;;;;;;;3.35;1.10;;;21.20;96.60;;;;;;5038904;28;20025;-84
2022/06/11 11:34:16;;;;;;;5.70;1.17;;;21.20;96.60;;;;;;5038879;28;20053;-84
2022/06/11 11:36:43;;;;;;;5.55;1.10;;;21.20;96.60;;;;;;5047329;28;20029;-83
2022/06/11 11:39:17;;;;;;;2.97;1.17;;;21.20;96.50;;;;;;5038524;28;20072;-84
2022/06/11 11:42:06;;;;;;;2.53;1.10;;;21.20;96.50;;;;;;5038655;28;20032;-83
2022/06/11 11:44:48;;;;;;;7.22;1.20;;;21.30;96.50;;;;;;5028316;28;20059;-83
2022/06/11 11:47:20;;;;;;;3.63;1.10;;;21.30;96.50;;;;;;5038601;28;20415;-84
2022/06/11 11:49:54;;;;;;;2.92;1.20;;;21.30;96.50;;;;;;5056684;28;20032;-84
2022/06/11 11:52:23;;;;;;;2.08;1.08;;;21.30;96.40;;;;;;5056418;28;20488;-84
2022/06/11 11:54:57;;;;;;;3.28;1.20;;;21.40;96.40;;;;;;5038402;28;20482;-84
2022/06/11 11:57:27;;;;;;;3.42;1.10;;;21.40;96.30;;;;;;5038341;28;20032;-84
2022/06/11 12:00:04;;;;;;;3.15;1.45;;;21.40;96.40;;;;;;5056154;28;20036;-85
2022/06/11 12:02:46;;;;;;;2.95;1.00;;;21.40;96.30;;;;;;5038275;28;20025;-84
2022/06/11 12:05:22;;;;;;;2.65;1.08;;;21.40;96.30;;;;;;5038250;28;20032;-84
2022/06/11 12:07:50;;;;;;;5.07;1.27;;;21.40;96.30;;;;;;5038201;28;20480;-84
2022/06/11 12:10:37;;;;;;;3.97;1.13;;;21.50;96.20;;;;;;5055995;28;20029;-84
2022/06/11 12:13:17;;;;;;;2.53;1.02;;;21.50;96.30;;;;;;5038484;28;20111;-84
2022/06/11 12:15:52;;;;;;;2.13;1.02;;;21.50;96.20;;;;;;5038058;28;20021;-84
2022/06/11 12:18:21;;;;;;;4.55;0.95;;;21.60;96.30;;;;;;5038033;28;20373;-84
2022/06/11 12:20:52;;;;;;;2.95;1.20;;;21.50;96.30;;;;;;5055839;28;20017;-83
2022/06/11 12:23:36;;;;;;;4.05;1.10;;;21.60;96.30;;;;;;5055751;28;20421;-84
2022/06/11 12:26:17;;;;;;;4.97;1.27;;;21.60;96.30;;;;;;5037820;28;20031;-83
2022/06/11 12:28:44;;;;;;;3.72;1.35;;;21.60;96.20;;;;;;5055679;28;20033;-84
2022/06/11 12:31:14;;;;;;;3.25;1.30;;;21.60;96.20;;;;;;5054451;28;20025;-84
2022/06/11 12:33:43;;;;;;;3.78;1.15;;;21.60;96.10;;;;;;5037691;28;20116;-84
2022/06/11 12:36:21;;;;;;;4.43;1.20;;;21.60;96.20;;;;;;5037590;28;20431;-83
2022/06/11 12:39:09;;;;;;;3.80;1.17;;;21.60;96.20;;;;;;5037488;28;20045;-83
2022/06/11 12:41:44;;;;;;;1.55;0.90;;;21.60;96.10;;;;;;5037498;28;20036;-84
2022/06/11 12:44:46;;;;;;;3.13;0.93;;;21.60;96.10;;;;;;5055373;28;20033;-84
2022/06/11 12:47:30;;;;;;;3.80;1.35;;;21.70;96.00;;;;;;5037460;28;20029;-84
2022/06/11 12:50:09;;;;;;;4.10;1.17;;;21.80;96.00;;;;;;5055580;28;20496;-84
2022/06/11 12:52:56;;;;;;;2.25;0.93;;;21.80;95.80;;;;;;5037423;28;20025;-84
2022/06/11 12:56:04;;;;;;;2.20;0.88;;;21.90;95.70;;;;;;5055473;28;20480;-84
2022/06/11 12:58:44;;;;;;;3.88;1.00;;;22.00;95.50;;;;;;5037235;28;20021;-84
2022/06/11 13:01:22;;;;;;;4.78;1.27;;;22.10;95.40;;;;;;5037106;28;20032;-84
2022/06/11 13:04:10;;;;;;;2.05;0.93;;;22.10;95.40;;;;;;5037204;28;20056;-84
2022/06/11 13:06:48;;;;;;;4.03;1.02;;;22.00;95.40;;;;;;5037138;28;20415;-84
2022/06/11 13:09:33;;;;;;;5.18;1.27;;;22.00;95.50;;;;;;5036980;28;20025;-84
2022/06/11 13:12:01;;;;;;;2.80;1.10;;;22.00;95.50;;;;;;5036971;28;20024;-84
2022/06/11 13:14:44;;;;;;;3.70;1.08;;;22.20;95.30;;;;;;5036968;28;20412;-84
2022/06/11 13:17:20;;;;;;;4.47;0.98;;;22.30;95.10;;;;;;5036905;28;20060;-84
2022/06/11 13:20:09;;;;;;;2.97;1.00;;;22.50;94.80;;;;;;5036949;28;20033;-85